AUA17 KMCO-LOWW
Flight info
| Callsign | AUA17 |
|---|---|
| Flight time | N/A |
| Altitude | 35000 |
| Route | MZULO3 LENDS COACH EAAGL HAAYY AZEZU KN57E LACKS JOBOC 4160N 4250N 4340N 4330N 4320N MUDOS ROXER NOLSA MARIO SINDO PIVUS DIBER NETUP STP RAPED PIGOS EKSID NOSTA LUKIM MALUG ARALD ABTAN |
| Aircraft | A359/H-SDE2E3GHIJ3J4J5LM1ORWXY/LB1D1 |
Departure
| Time | 2026-04-25 14:21 |
|---|---|
| Airport | Orlando International Airport (KMCO) |
Arrival
| Time | N/A |
|---|---|
| Airport | Vienna International Airport (LOWW) |
| Time | Latitude | Longitude | Altitude | Speed | Heading |
|---|---|---|---|---|---|
| 2026-04-25 10:33 | 28.41237 | -81.31561 | 103 ft | 0 kts | 180° |
| 2026-04-25 13:39 | 28.41239 | -81.31561 | 104 ft | 3 kts | 180° |
| 2026-04-25 13:39 | 28.41262 | -81.31562 | 100 ft | 1 kts | 179° |
| 2026-04-25 13:39 | 28.41287 | -81.31563 | 99 ft | 4 kts | 176° |
| 2026-04-25 13:39 | 28.41313 | -81.31565 | 98 ft | 4 kts | 175° |
| 2026-04-25 13:40 | 28.41340 | -81.31568 | 102 ft | 4 kts | 181° |
| 2026-04-25 13:40 | 28.41366 | -81.31563 | 102 ft | 4 kts | 216° |
| 2026-04-25 13:40 | 28.41374 | -81.31555 | 99 ft | 1 kts | 232° |
| 2026-04-25 13:40 | 28.41374 | -81.31554 | 98 ft | 0 kts | 232° |
| 2026-04-25 13:48 | 28.41373 | -81.31556 | 99 ft | 1 kts | 232° |
| 2026-04-25 13:48 | 28.41368 | -81.31563 | 99 ft | 3 kts | 233° |
| 2026-04-25 13:48 | 28.41345 | -81.31607 | 101 ft | 10 kts | 244° |
| 2026-04-25 13:48 | 28.41331 | -81.31688 | 101 ft | 11 kts | 268° |
| 2026-04-25 13:49 | 28.41331 | -81.31775 | 102 ft | 4 kts | 270° |
| 2026-04-25 13:49 | 28.41331 | -81.31798 | 103 ft | 0 kts | 270° |
| 2026-04-25 13:50 | 28.41331 | -81.31800 | 103 ft | 1 kts | 276° |
| 2026-04-25 13:51 | 28.41342 | -81.31808 | 105 ft | 4 kts | 331° |
| 2026-04-25 13:51 | 28.41412 | -81.31802 | 103 ft | 16 kts | 7° |
| 2026-04-25 13:51 | 28.41534 | -81.31791 | 105 ft | 18 kts | 0° |
| 2026-04-25 13:51 | 28.41665 | -81.31791 | 105 ft | 19 kts | 0° |
| 2026-04-25 13:52 | 28.41804 | -81.31793 | 105 ft | 21 kts | 359° |
| 2026-04-25 13:52 | 28.41949 | -81.31793 | 106 ft | 22 kts | 359° |
| 2026-04-25 13:52 | 28.42104 | -81.31791 | 105 ft | 23 kts | 5° |
| 2026-04-25 13:52 | 28.42239 | -81.31768 | 105 ft | 15 kts | 24° |
| 2026-04-25 13:53 | 28.42291 | -81.31673 | 106 ft | 13 kts | 32° |
| 2026-04-25 13:53 | 28.42343 | -81.31632 | 106 ft | 10 kts | 71° |
| 2026-04-25 13:53 | 28.42349 | -81.31535 | 103 ft | 15 kts | 90° |
| 2026-04-25 13:53 | 28.42350 | -81.31402 | 102 ft | 19 kts | 89° |
| 2026-04-25 13:54 | 28.42347 | -81.31248 | 100 ft | 21 kts | 94° |
| 2026-04-25 13:54 | 28.42324 | -81.31081 | 102 ft | 22 kts | 101° |
| 2026-04-25 13:54 | 28.42319 | -81.30903 | 102 ft | 23 kts | 86° |
| 2026-04-25 13:54 | 28.42331 | -81.30738 | 104 ft | 20 kts | 85° |
| 2026-04-25 13:55 | 28.42341 | -81.30604 | 102 ft | 13 kts | 85° |
| 2026-04-25 13:55 | 28.42344 | -81.30555 | 102 ft | 0 kts | 86° |
| 2026-04-25 13:56 | 28.42346 | -81.30524 | 101 ft | 8 kts | 85° |
| 2026-04-25 13:56 | 28.42351 | -81.30425 | 101 ft | 16 kts | 92° |
| 2026-04-25 13:57 | 28.42359 | -81.30274 | 105 ft | 22 kts | 89° |
| 2026-04-25 13:57 | 28.42360 | -81.30162 | 103 ft | 21 kts | 89° |
| 2026-04-25 13:57 | 28.42361 | -81.29938 | 101 ft | 22 kts | 90° |
| 2026-04-25 13:57 | 28.42389 | -81.29806 | 105 ft | 15 kts | 32° |
| 2026-04-25 13:58 | 28.42494 | -81.29795 | 102 ft | 16 kts | 359° |
| 2026-04-25 13:58 | 28.42611 | -81.29796 | 102 ft | 18 kts | 359° |
| 2026-04-25 13:58 | 28.42739 | -81.29798 | 102 ft | 19 kts | 359° |
| 2026-04-25 13:58 | 28.42879 | -81.29799 | 104 ft | 21 kts | 359° |
| 2026-04-25 13:59 | 28.43000 | -81.29800 | 103 ft | 12 kts | 359° |
| 2026-04-25 13:59 | 28.43068 | -81.29801 | 102 ft | 8 kts | 359° |
| 2026-04-25 13:59 | 28.43081 | -81.29801 | 102 ft | 0 kts | 359° |
| 2026-04-25 14:02 | 28.43082 | -81.29801 | 101 ft | 1 kts | 359° |
| 2026-04-25 14:02 | 28.43098 | -81.29801 | 104 ft | 4 kts | 359° |
| 2026-04-25 14:02 | 28.43113 | -81.29801 | 104 ft | 0 kts | 359° |
| 2026-04-25 14:03 | 28.43114 | -81.29801 | 103 ft | 0 kts | 359° |
| 2026-04-25 14:04 | 28.43116 | -81.29801 | 103 ft | 1 kts | 359° |
| 2026-04-25 14:05 | 28.43136 | -81.29802 | 102 ft | 5 kts | 359° |
| 2026-04-25 14:05 | 28.43193 | -81.29802 | 102 ft | 10 kts | 359° |
| 2026-04-25 14:05 | 28.43254 | -81.29803 | 102 ft | 10 kts | 359° |
| 2026-04-25 14:05 | 28.43326 | -81.29793 | 103 ft | 9 kts | 28° |
| 2026-04-25 14:06 | 28.43336 | -81.29754 | 104 ft | 5 kts | 86° |
| 2026-04-25 14:06 | 28.43341 | -81.29727 | 106 ft | 1 kts | 56° |
| 2026-04-25 14:06 | 28.43342 | -81.29726 | 106 ft | 0 kts | 50° |
| 2026-04-25 14:06 | 28.43344 | -81.29725 | 106 ft | 1 kts | 42° |
| 2026-04-25 14:07 | 28.43350 | -81.29722 | 106 ft | 1 kts | 28° |
| 2026-04-25 14:16 | 28.43351 | -81.29721 | 102 ft | 1 kts | 27° |
| 2026-04-25 14:17 | 28.43361 | -81.29718 | 103 ft | 3 kts | 18° |
| 2026-04-25 14:17 | 28.43398 | -81.29713 | 105 ft | 8 kts | 2° |
| 2026-04-25 14:17 | 28.43458 | -81.29711 | 102 ft | 6 kts | 0° |
| 2026-04-25 14:17 | 28.43463 | -81.29712 | 102 ft | 0 kts | 359° |
| 2026-04-25 14:18 | 28.43477 | -81.29712 | 103 ft | 7 kts | 359° |
| 2026-04-25 14:18 | 28.43527 | -81.29710 | 104 ft | 7 kts | 11° |
| 2026-04-25 14:18 | 28.43531 | -81.29708 | 103 ft | 0 kts | 24° |
| 2026-04-25 14:19 | 28.43542 | -81.29689 | 103 ft | 6 kts | 64° |
| 2026-04-25 14:19 | 28.43539 | -81.29623 | 104 ft | 8 kts | 118° |
| 2026-04-25 14:19 | 28.43503 | -81.29595 | 105 ft | 6 kts | 149° |
| 2026-04-25 14:20 | 28.43461 | -81.29587 | 107 ft | 0 kts | 178° |
| 2026-04-25 14:20 | 28.43455 | -81.29587 | 106 ft | 7 kts | 179° |
| 2026-04-25 14:21 | 28.43175 | -81.29583 | 105 ft | 80 kts | 180° |
| 2026-04-25 14:21 | 28.42359 | -81.29574 | 102 ft | 152 kts | 179° |
| 2026-04-25 14:21 | 28.41207 | -81.29554 | 700 ft | 165 kts | 179° |
| 2026-04-25 14:21 | 28.40028 | -81.29508 | 1517 ft | 178 kts | 178° |
| 2026-04-25 14:22 | 28.38708 | -81.29349 | 1915 ft | 205 kts | 169° |
| 2026-04-25 14:22 | 28.37293 | -81.28686 | 2180 ft | 234 kts | 151° |
| 2026-04-25 14:22 | 28.35879 | -81.27648 | 2696 ft | 250 kts | 147° |
| 2026-04-25 14:22 | 28.34499 | -81.26398 | 3329 ft | 258 kts | 135° |
| 2026-04-25 14:23 | 28.33259 | -81.24909 | 4042 ft | 263 kts | 133° |
| 2026-04-25 14:23 | 28.32007 | -81.23369 | 4776 ft | 267 kts | 133° |
| 2026-04-25 14:23 | 28.30718 | -81.21791 | 5526 ft | 271 kts | 133° |
| 2026-04-25 14:23 | 28.29426 | -81.20214 | 6301 ft | 274 kts | 133° |
| 2026-04-25 14:24 | 28.28117 | -81.18616 | 7019 ft | 280 kts | 133° |
| 2026-04-25 14:24 | 28.26795 | -81.16999 | 7706 ft | 288 kts | 133° |
| 2026-04-25 14:24 | 28.25557 | -81.15182 | 8459 ft | 293 kts | 120° |
| 2026-04-25 14:24 | 28.24862 | -81.13013 | 9275 ft | 295 kts | 97° |
| 2026-04-25 14:25 | 28.25028 | -81.10700 | 10008 ft | 296 kts | 68° |
| 2026-04-25 14:25 | 28.26110 | -81.08689 | 10454 ft | 308 kts | 47° |
| 2026-04-25 14:25 | 28.27830 | -81.07207 | 10728 ft | 324 kts | 27° |
| 2026-04-25 14:25 | 28.28496 | -81.06772 | 10833 ft | 330 kts | 27° |
| 2026-04-25 14:26 | 28.31889 | -81.04347 | 11343 ft | 361 kts | 33° |
| 2026-04-25 14:26 | 28.33795 | -81.02429 | 11866 ft | 372 kts | 45° |
| 2026-04-25 14:26 | 28.35461 | -81.00146 | 12515 ft | 377 kts | 50° |
| 2026-04-25 14:26 | 28.37084 | -80.97785 | 13177 ft | 381 kts | 50° |
| 2026-04-25 14:27 | 28.38716 | -80.95388 | 13744 ft | 385 kts | 50° |
| 2026-04-25 14:27 | 28.40353 | -80.92973 | 13954 ft | 387 kts | 50° |
| 2026-04-25 14:27 | 28.41999 | -80.90545 | 14001 ft | 388 kts | 50° |
| 2026-04-25 14:27 | 28.43659 | -80.88160 | 13998 ft | 390 kts | 49° |
| 2026-04-25 14:28 | 28.45368 | -80.85761 | 13998 ft | 391 kts | 49° |
| 2026-04-25 14:28 | 28.46938 | -80.83236 | 13995 ft | 393 kts | 59° |
| 2026-04-25 14:28 | 28.47885 | -80.80312 | 14003 ft | 396 kts | 77° |
| 2026-04-25 14:28 | 28.48311 | -80.77199 | 14113 ft | 400 kts | 81° |
| 2026-04-25 14:29 | 28.48653 | -80.74018 | 14138 ft | 418 kts | 82° |
| 2026-04-25 14:29 | 28.49008 | -80.70646 | 13738 ft | 429 kts | 82° |
| 2026-04-25 14:29 | 28.49346 | -80.67330 | 13408 ft | 416 kts | 82° |
| 2026-04-25 14:29 | 28.49666 | -80.64120 | 13222 ft | 399 kts | 82° |
| 2026-04-25 14:30 | 28.50014 | -80.60982 | 13235 ft | 409 kts | 81° |
| 2026-04-25 14:30 | 28.50763 | -80.54508 | 14799 ft | 407 kts | 81° |
| 2026-04-25 14:30 | 28.51118 | -80.51349 | 15452 ft | 409 kts | 81° |
| 2026-04-25 14:31 | 28.51477 | -80.48121 | 16019 ft | 413 kts | 81° |
| 2026-04-25 14:31 | 28.51836 | -80.44865 | 16599 ft | 417 kts | 81° |
| 2026-04-25 14:31 | 28.52197 | -80.41581 | 17173 ft | 421 kts | 81° |
| 2026-04-25 14:31 | 28.52560 | -80.38254 | 17761 ft | 425 kts | 81° |
| 2026-04-25 14:32 | 28.52926 | -80.34899 | 18323 ft | 429 kts | 81° |
| 2026-04-25 14:32 | 28.53312 | -80.31504 | 18765 ft | 435 kts | 79° |
| 2026-04-25 14:32 | 28.54017 | -80.28160 | 19268 ft | 435 kts | 68° |
| 2026-04-25 14:32 | 28.55125 | -80.24966 | 19949 ft | 432 kts | 64° |
| 2026-04-25 14:33 | 28.56313 | -80.21836 | 20668 ft | 431 kts | 64° |
| 2026-04-25 14:33 | 28.57516 | -80.18690 | 21166 ft | 436 kts | 64° |
| 2026-04-25 14:33 | 28.58731 | -80.15506 | 21672 ft | 441 kts | 64° |
| 2026-04-25 14:33 | 28.59953 | -80.12292 | 22248 ft | 443 kts | 64° |
| 2026-04-25 14:34 | 28.61160 | -80.09106 | 22836 ft | 446 kts | 64° |
| 2026-04-25 14:34 | 28.62399 | -80.05834 | 23429 ft | 449 kts | 64° |
| 2026-04-25 14:34 | 28.63640 | -80.02551 | 23896 ft | 452 kts | 65° |
| 2026-04-25 14:34 | 28.64463 | -80.00370 | 24219 ft | 454 kts | 65° |
| 2026-04-25 14:35 | 28.65716 | -79.97048 | 24744 ft | 456 kts | 65° |
| 2026-04-25 14:35 | 28.67380 | -79.92633 | 25405 ft | 459 kts | 65° |
| 2026-04-25 14:35 | 28.68641 | -79.89284 | 25893 ft | 462 kts | 65° |
| 2026-04-25 14:35 | 28.69498 | -79.87006 | 26206 ft | 463 kts | 65° |
| 2026-04-25 14:36 | 28.70758 | -79.83655 | 26700 ft | 466 kts | 65° |
| 2026-04-25 14:36 | 28.72040 | -79.80243 | 27182 ft | 468 kts | 65° |
| 2026-04-25 14:36 | 28.73328 | -79.76811 | 27519 ft | 474 kts | 65° |
| 2026-04-25 14:36 | 28.74632 | -79.73332 | 27893 ft | 478 kts | 65° |
| 2026-04-25 14:37 | 28.75940 | -79.69839 | 28512 ft | 477 kts | 65° |
| 2026-04-25 14:37 | 28.77236 | -79.66374 | 29181 ft | 474 kts | 65° |
| 2026-04-25 14:37 | 28.78529 | -79.62916 | 29793 ft | 474 kts | 65° |
| 2026-04-25 14:37 | 28.79815 | -79.59476 | 30010 ft | 481 kts | 65° |
| 2026-04-25 14:38 | 28.81315 | -79.55989 | 30238 ft | 485 kts | 58° |
| 2026-04-25 14:38 | 28.83142 | -79.52811 | 30520 ft | 487 kts | 53° |
| 2026-04-25 14:38 | 28.85117 | -79.49652 | 30830 ft | 490 kts | 53° |
| 2026-04-25 14:38 | 28.87113 | -79.46491 | 31127 ft | 492 kts | 53° |
| 2026-04-25 14:39 | 28.89117 | -79.43311 | 31418 ft | 495 kts | 53° |
| 2026-04-25 14:39 | 28.91132 | -79.40109 | 31686 ft | 498 kts | 53° |
| 2026-04-25 14:39 | 28.93157 | -79.36885 | 31984 ft | 499 kts | 53° |
| 2026-04-25 14:39 | 28.95177 | -79.33662 | 32405 ft | 498 kts | 53° |
| 2026-04-25 14:40 | 28.97192 | -79.30446 | 32805 ft | 498 kts | 53° |
| 2026-04-25 14:40 | 28.99206 | -79.27228 | 33172 ft | 497 kts | 53° |
| 2026-04-25 14:40 | 29.01214 | -79.24016 | 33543 ft | 497 kts | 53° |
| 2026-04-25 14:40 | 29.03220 | -79.20806 | 33898 ft | 497 kts | 53° |
| 2026-04-25 14:41 | 29.05229 | -79.17589 | 34222 ft | 496 kts | 53° |
| 2026-04-25 14:41 | 29.07231 | -79.14379 | 34574 ft | 494 kts | 52° |
| 2026-04-25 14:41 | 29.09226 | -79.11179 | 34893 ft | 493 kts | 52° |
| 2026-04-25 14:41 | 29.11197 | -79.08015 | 34992 ft | 494 kts | 52° |
| 2026-04-25 14:42 | 29.14532 | -79.02657 | 35001 ft | 494 kts | 52° |
| 2026-04-25 14:42 | 29.19166 | -78.95200 | 34999 ft | 495 kts | 52° |
| 2026-04-25 14:43 | 29.23152 | -78.88773 | 34998 ft | 495 kts | 52° |
| 2026-04-25 14:43 | 29.27140 | -78.82334 | 35002 ft | 495 kts | 53° |
| 2026-04-25 14:44 | 29.31126 | -78.75889 | 35001 ft | 495 kts | 53° |
| 2026-04-25 14:44 | 29.35104 | -78.69447 | 35004 ft | 495 kts | 52° |
| 2026-04-25 14:45 | 29.39541 | -78.63489 | 35008 ft | 490 kts | 33° |
| 2026-04-25 14:45 | 29.42481 | -78.61666 | 35001 ft | 485 kts | 18° |
| 2026-04-25 14:45 | 29.45742 | -78.60760 | 35004 ft | 482 kts | 6° |
| 2026-04-25 14:46 | 29.52416 | -78.59871 | 35000 ft | 484 kts | 7° |
| 2026-04-25 14:46 | 29.59003 | -78.58259 | 34999 ft | 486 kts | 14° |
| 2026-04-25 14:47 | 29.64379 | -78.56357 | 34999 ft | 486 kts | 17° |
| 2026-04-25 14:47 | 29.71872 | -78.53390 | 34997 ft | 486 kts | 17° |
| 2026-04-25 14:48 | 29.78272 | -78.50840 | 34999 ft | 486 kts | 17° |
| 2026-04-25 14:48 | 29.84637 | -78.48336 | 34999 ft | 486 kts | 17° |
| 2026-04-25 14:49 | 29.91055 | -78.45826 | 35001 ft | 486 kts | 17° |
| 2026-04-25 14:49 | 29.97475 | -78.43314 | 34992 ft | 486 kts | 17° |
| 2026-04-25 14:50 | 30.03881 | -78.40804 | 34994 ft | 486 kts | 17° |
| 2026-04-25 14:50 | 30.10249 | -78.38304 | 34989 ft | 486 kts | 17° |
| 2026-04-25 14:51 | 30.16657 | -78.35784 | 34991 ft | 486 kts | 17° |
| 2026-04-25 14:51 | 30.23067 | -78.33260 | 34987 ft | 486 kts | 17° |
| 2026-04-25 14:52 | 30.29468 | -78.30736 | 34998 ft | 486 kts | 17° |
| 2026-04-25 14:52 | 30.34800 | -78.28631 | 34988 ft | 486 kts | 17° |
| 2026-04-25 14:53 | 30.42252 | -78.25685 | 34992 ft | 486 kts | 17° |
| 2026-04-25 14:53 | 30.48656 | -78.23150 | 34991 ft | 486 kts | 17° |
| 2026-04-25 14:54 | 30.55017 | -78.20628 | 34990 ft | 486 kts | 17° |
| 2026-04-25 14:54 | 30.61423 | -78.18085 | 34990 ft | 486 kts | 17° |
| 2026-04-25 14:55 | 30.67831 | -78.15537 | 34993 ft | 486 kts | 17° |
| 2026-04-25 14:55 | 30.74181 | -78.13009 | 34988 ft | 484 kts | 18° |
| 2026-04-25 14:56 | 30.80557 | -78.10466 | 34989 ft | 484 kts | 18° |
| 2026-04-25 14:56 | 30.86934 | -78.07920 | 34983 ft | 484 kts | 18° |
| 2026-04-25 14:57 | 30.93303 | -78.05374 | 34985 ft | 484 kts | 18° |
| 2026-04-25 14:57 | 30.99677 | -78.02822 | 34986 ft | 484 kts | 18° |
| 2026-04-25 14:58 | 31.05994 | -78.00276 | 34982 ft | 483 kts | 19° |
| 2026-04-25 14:58 | 31.12018 | -77.96734 | 34985 ft | 485 kts | 29° |
| 2026-04-25 14:59 | 31.17819 | -77.92639 | 35028 ft | 490 kts | 31° |
| 2026-04-25 14:59 | 31.20711 | -77.90538 | 35368 ft | 488 kts | 31° |
| 2026-04-25 14:59 | 31.23546 | -77.88472 | 35787 ft | 484 kts | 31° |
| 2026-04-25 15:00 | 31.26392 | -77.86398 | 36224 ft | 479 kts | 31° |
| 2026-04-25 15:00 | 31.29216 | -77.84343 | 36578 ft | 477 kts | 31° |
| 2026-04-25 15:00 | 31.32038 | -77.82296 | 36851 ft | 477 kts | 31° |
| 2026-04-25 15:00 | 31.34862 | -77.80249 | 37131 ft | 476 kts | 31° |
| 2026-04-25 15:01 | 31.37673 | -77.78212 | 37414 ft | 474 kts | 31° |
| 2026-04-25 15:01 | 31.40476 | -77.76180 | 37695 ft | 473 kts | 30° |
| 2026-04-25 15:01 | 31.43267 | -77.74156 | 37974 ft | 472 kts | 30° |
| 2026-04-25 15:01 | 31.46053 | -77.72133 | 38245 ft | 470 kts | 30° |
| 2026-04-25 15:02 | 31.48826 | -77.70120 | 38510 ft | 468 kts | 31° |
| 2026-04-25 15:02 | 31.51587 | -77.68111 | 38848 ft | 464 kts | 31° |
| 2026-04-25 15:02 | 31.54335 | -77.66112 | 38978 ft | 465 kts | 31° |
| 2026-04-25 15:02 | 31.57053 | -77.64133 | 38986 ft | 466 kts | 31° |
| 2026-04-25 15:03 | 31.62565 | -77.60117 | 38982 ft | 466 kts | 31° |
| 2026-04-25 15:03 | 31.68079 | -77.56094 | 38981 ft | 469 kts | 31° |
| 2026-04-25 15:04 | 31.73636 | -77.52032 | 38981 ft | 471 kts | 31° |
| 2026-04-25 15:04 | 31.79197 | -77.47961 | 38981 ft | 469 kts | 31° |
| 2026-04-25 15:05 | 31.84732 | -77.43903 | 38979 ft | 468 kts | 31° |
| 2026-04-25 15:06 | 31.92982 | -77.37844 | 38977 ft | 468 kts | 31° |
| 2026-04-25 15:06 | 31.98517 | -77.33773 | 38978 ft | 468 kts | 31° |
| 2026-04-25 15:07 | 32.04015 | -77.29723 | 38975 ft | 463 kts | 31° |
| 2026-04-25 15:07 | 32.09477 | -77.25693 | 38973 ft | 462 kts | 31° |
| 2026-04-25 15:08 | 32.14929 | -77.21665 | 38980 ft | 462 kts | 31° |
| 2026-04-25 15:08 | 32.20361 | -77.17647 | 38971 ft | 465 kts | 31° |
| 2026-04-25 15:09 | 32.25873 | -77.13603 | 38973 ft | 466 kts | 31° |
| 2026-04-25 15:09 | 32.34142 | -77.07630 | 38977 ft | 463 kts | 31° |
| 2026-04-25 15:10 | 32.39645 | -77.03644 | 38968 ft | 463 kts | 31° |
| 2026-04-25 15:11 | 32.47887 | -76.97650 | 38967 ft | 463 kts | 31° |
| 2026-04-25 15:11 | 32.53345 | -76.93671 | 38967 ft | 463 kts | 31° |
| 2026-04-25 15:12 | 32.61579 | -76.87659 | 38968 ft | 463 kts | 31° |
| 2026-04-25 15:12 | 32.65220 | -76.84996 | 38972 ft | 463 kts | 31° |
| 2026-04-25 15:13 | 32.75319 | -76.77598 | 38965 ft | 465 kts | 31° |
| 2026-04-25 15:14 | 32.80825 | -76.73556 | 38967 ft | 465 kts | 31° |
| 2026-04-25 15:14 | 32.86294 | -76.69535 | 38966 ft | 465 kts | 31° |
| 2026-04-25 15:15 | 32.91814 | -76.65470 | 38966 ft | 465 kts | 31° |
| 2026-04-25 15:15 | 32.97313 | -76.61415 | 38966 ft | 465 kts | 31° |
| 2026-04-25 15:16 | 33.02822 | -76.57346 | 38967 ft | 465 kts | 31° |
| 2026-04-25 15:16 | 33.11052 | -76.51258 | 38960 ft | 466 kts | 31° |
| 2026-04-25 15:17 | 33.19323 | -76.45125 | 38959 ft | 467 kts | 31° |
| 2026-04-25 15:18 | 33.24811 | -76.41048 | 38960 ft | 467 kts | 31° |
| 2026-04-25 15:18 | 33.33098 | -76.34879 | 38964 ft | 468 kts | 31° |
| 2026-04-25 15:19 | 33.36800 | -76.32119 | 38963 ft | 468 kts | 31° |
| 2026-04-25 15:19 | 33.44158 | -76.26625 | 38959 ft | 468 kts | 31° |
| 2026-04-25 15:20 | 33.49689 | -76.22487 | 38966 ft | 469 kts | 31° |
| 2026-04-25 15:20 | 33.55207 | -76.18354 | 38954 ft | 470 kts | 31° |
| 2026-04-25 15:21 | 33.60751 | -76.14194 | 38955 ft | 470 kts | 31° |
| 2026-04-25 15:21 | 33.66306 | -76.10020 | 38949 ft | 470 kts | 31° |
| 2026-04-25 15:22 | 33.71859 | -76.05840 | 38949 ft | 471 kts | 31° |
| 2026-04-25 15:22 | 33.77383 | -76.01677 | 38960 ft | 472 kts | 31° |
| 2026-04-25 15:23 | 33.82944 | -75.97479 | 38946 ft | 472 kts | 31° |
| 2026-04-25 15:23 | 33.88515 | -75.93266 | 38949 ft | 472 kts | 31° |
| 2026-04-25 15:24 | 33.94046 | -75.89078 | 38951 ft | 472 kts | 30° |
| 2026-04-25 15:24 | 33.97771 | -75.86253 | 38950 ft | 473 kts | 30° |
| 2026-04-25 15:25 | 34.04255 | -75.81329 | 38946 ft | 474 kts | 30° |
| 2026-04-25 15:25 | 34.09839 | -75.77082 | 38946 ft | 474 kts | 31° |
| 2026-04-25 15:26 | 34.15409 | -75.72838 | 38951 ft | 473 kts | 31° |
| 2026-04-25 15:26 | 34.20965 | -75.68598 | 38936 ft | 475 kts | 30° |
| 2026-04-25 15:27 | 34.26573 | -75.64311 | 38935 ft | 476 kts | 30° |
| 2026-04-25 15:28 | 34.34950 | -75.57897 | 38936 ft | 476 kts | 30° |
| 2026-04-25 15:28 | 34.40545 | -75.53603 | 38937 ft | 476 kts | 30° |
| 2026-04-25 15:29 | 34.46158 | -75.49289 | 38936 ft | 478 kts | 30° |
| 2026-04-25 15:29 | 34.51785 | -75.44958 | 38933 ft | 479 kts | 30° |
| 2026-04-25 15:30 | 34.57412 | -75.40619 | 38927 ft | 478 kts | 30° |
| 2026-04-25 15:30 | 34.63031 | -75.36278 | 38933 ft | 478 kts | 30° |
| 2026-04-25 15:31 | 34.68645 | -75.31936 | 38927 ft | 479 kts | 30° |
| 2026-04-25 15:31 | 34.74280 | -75.27570 | 38925 ft | 480 kts | 30° |
| 2026-04-25 15:32 | 34.79879 | -75.23225 | 38922 ft | 480 kts | 30° |
| 2026-04-25 15:32 | 34.85504 | -75.18851 | 38926 ft | 479 kts | 29° |
| 2026-04-25 15:33 | 34.93910 | -75.12302 | 38919 ft | 479 kts | 29° |
| 2026-04-25 15:33 | 34.99545 | -75.07904 | 38919 ft | 479 kts | 29° |
| 2026-04-25 15:34 | 35.05162 | -75.03512 | 38921 ft | 478 kts | 29° |
| 2026-04-25 15:34 | 35.09815 | -74.99868 | 38922 ft | 477 kts | 29° |
| 2026-04-25 15:35 | 35.19102 | -74.92581 | 38919 ft | 477 kts | 30° |
| 2026-04-25 15:36 | 35.27486 | -74.85985 | 38922 ft | 477 kts | 30° |
| 2026-04-25 15:36 | 35.33056 | -74.81542 | 38918 ft | 478 kts | 31° |
| 2026-04-25 15:37 | 35.38402 | -74.76655 | 38917 ft | 480 kts | 34° |
| 2026-04-25 15:37 | 35.43682 | -74.71630 | 38919 ft | 480 kts | 34° |
| 2026-04-25 15:38 | 35.48994 | -74.66653 | 38920 ft | 480 kts | 33° |
| 2026-04-25 15:38 | 35.54303 | -74.61739 | 38920 ft | 480 kts | 33° |
| 2026-04-25 15:39 | 35.59654 | -74.56799 | 38919 ft | 481 kts | 33° |
| 2026-04-25 15:39 | 35.65008 | -74.51848 | 38914 ft | 481 kts | 33° |
| 2026-04-25 15:40 | 35.69454 | -74.47726 | 38919 ft | 481 kts | 33° |
| 2026-04-25 15:40 | 35.75703 | -74.41920 | 38920 ft | 482 kts | 33° |
| 2026-04-25 15:41 | 35.81062 | -74.36933 | 38913 ft | 483 kts | 33° |
| 2026-04-25 15:41 | 35.86420 | -74.31936 | 38916 ft | 482 kts | 32° |
| 2026-04-25 15:42 | 35.91734 | -74.26971 | 38917 ft | 481 kts | 32° |
| 2026-04-25 15:42 | 35.97083 | -74.21967 | 38917 ft | 481 kts | 32° |
| 2026-04-25 15:43 | 36.02403 | -74.16982 | 38920 ft | 482 kts | 32° |
| 2026-04-25 15:43 | 36.07747 | -74.11964 | 38919 ft | 482 kts | 32° |
| 2026-04-25 15:44 | 36.13092 | -74.06937 | 38922 ft | 482 kts | 32° |
| 2026-04-25 15:44 | 36.18435 | -74.01902 | 38919 ft | 483 kts | 32° |
| 2026-04-25 15:45 | 36.23751 | -73.96885 | 38923 ft | 482 kts | 32° |
| 2026-04-25 15:45 | 36.28225 | -73.92655 | 38936 ft | 482 kts | 32° |
| 2026-04-25 15:46 | 36.34423 | -73.86785 | 38939 ft | 482 kts | 32° |
| 2026-04-25 15:46 | 36.39748 | -73.81733 | 38939 ft | 482 kts | 32° |
| 2026-04-25 15:47 | 36.45082 | -73.76663 | 38950 ft | 482 kts | 32° |
| 2026-04-25 15:47 | 36.50372 | -73.71626 | 38943 ft | 482 kts | 32° |
| 2026-04-25 15:48 | 36.55695 | -73.66548 | 38949 ft | 482 kts | 32° |
| 2026-04-25 15:48 | 36.61021 | -73.61457 | 38959 ft | 481 kts | 32° |
| 2026-04-25 15:49 | 36.66328 | -73.56375 | 38955 ft | 480 kts | 32° |
| 2026-04-25 15:49 | 36.71587 | -73.51333 | 38956 ft | 480 kts | 32° |
| 2026-04-25 15:50 | 36.76874 | -73.46254 | 38965 ft | 480 kts | 32° |
| 2026-04-25 15:50 | 36.82173 | -73.41155 | 38970 ft | 480 kts | 32° |
| 2026-04-25 15:51 | 36.86587 | -73.36901 | 38977 ft | 481 kts | 32° |
| 2026-04-25 15:51 | 36.92745 | -73.30954 | 38976 ft | 482 kts | 32° |
| 2026-04-25 15:52 | 36.98039 | -73.25829 | 38978 ft | 480 kts | 32° |
| 2026-04-25 15:52 | 37.03319 | -73.20709 | 38989 ft | 480 kts | 32° |
| 2026-04-25 15:53 | 37.08616 | -73.15568 | 38985 ft | 481 kts | 32° |
| 2026-04-25 15:53 | 37.13956 | -73.10373 | 38987 ft | 481 kts | 32° |
| 2026-04-25 15:54 | 37.19202 | -73.05259 | 38996 ft | 482 kts | 32° |
| 2026-04-25 15:54 | 37.24488 | -73.00097 | 39001 ft | 482 kts | 32° |
| 2026-04-25 15:55 | 37.29745 | -72.94954 | 39002 ft | 482 kts | 32° |
| 2026-04-25 15:55 | 37.35018 | -72.89785 | 38999 ft | 480 kts | 32° |
| 2026-04-25 15:56 | 37.40277 | -72.84621 | 39016 ft | 479 kts | 32° |
| 2026-04-25 15:56 | 37.45551 | -72.79435 | 39011 ft | 481 kts | 32° |
| 2026-04-25 15:57 | 37.50832 | -72.74233 | 39015 ft | 482 kts | 32° |
| 2026-04-25 15:57 | 37.56117 | -72.69014 | 39026 ft | 482 kts | 32° |
| 2026-04-25 15:58 | 37.61365 | -72.63823 | 39034 ft | 482 kts | 32° |
| 2026-04-25 15:58 | 37.66655 | -72.58581 | 39039 ft | 482 kts | 32° |
| 2026-04-25 15:59 | 37.71922 | -72.53350 | 39038 ft | 480 kts | 32° |
| 2026-04-25 15:59 | 37.77174 | -72.48126 | 39046 ft | 480 kts | 32° |
| 2026-04-25 16:00 | 37.80649 | -72.44665 | 39068 ft | 480 kts | 31° |
| 2026-04-25 16:00 | 37.87526 | -72.37525 | 39061 ft | 485 kts | 39° |
| 2026-04-25 16:01 | 37.92174 | -72.31276 | 39059 ft | 488 kts | 41° |
| 2026-04-25 16:01 | 37.96718 | -72.24854 | 39077 ft | 489 kts | 42° |
| 2026-04-25 16:02 | 38.01243 | -72.18398 | 39071 ft | 490 kts | 42° |
| 2026-04-25 16:02 | 38.05780 | -72.11934 | 39072 ft | 490 kts | 42° |
| 2026-04-25 16:03 | 38.10313 | -72.05480 | 39075 ft | 490 kts | 42° |
| 2026-04-25 16:03 | 38.14824 | -71.99049 | 39077 ft | 490 kts | 42° |
| 2026-04-25 16:04 | 38.19365 | -71.92563 | 39089 ft | 490 kts | 42° |
| 2026-04-25 16:04 | 38.23890 | -71.86084 | 39086 ft | 489 kts | 41° |
| 2026-04-25 16:05 | 38.28379 | -71.79644 | 39089 ft | 489 kts | 41° |
| 2026-04-25 16:06 | 38.35147 | -71.69914 | 39108 ft | 489 kts | 41° |
| 2026-04-25 16:06 | 38.39638 | -71.63440 | 39096 ft | 489 kts | 41° |
| 2026-04-25 16:07 | 38.44130 | -71.56951 | 39100 ft | 489 kts | 41° |
| 2026-04-25 16:07 | 38.48632 | -71.50434 | 39100 ft | 489 kts | 41° |
| 2026-04-25 16:08 | 38.53135 | -71.43902 | 39118 ft | 490 kts | 41° |
| 2026-04-25 16:08 | 38.57637 | -71.37359 | 39102 ft | 490 kts | 41° |
| 2026-04-25 16:09 | 38.62145 | -71.30792 | 39102 ft | 491 kts | 41° |
| 2026-04-25 16:09 | 38.66648 | -71.24220 | 39105 ft | 491 kts | 41° |
| 2026-04-25 16:10 | 38.71124 | -71.17672 | 39132 ft | 491 kts | 42° |
| 2026-04-25 16:10 | 38.75627 | -71.11073 | 39113 ft | 491 kts | 42° |
| 2026-04-25 16:11 | 38.80130 | -71.04461 | 39111 ft | 492 kts | 42° |
| 2026-04-25 16:11 | 38.84594 | -70.97890 | 39116 ft | 492 kts | 42° |
| 2026-04-25 16:12 | 38.89092 | -70.91256 | 39131 ft | 492 kts | 42° |
| 2026-04-25 16:12 | 38.93576 | -70.84629 | 39122 ft | 491 kts | 42° |
| 2026-04-25 16:13 | 38.98064 | -70.77981 | 39120 ft | 491 kts | 42° |
| 2026-04-25 16:13 | 39.01792 | -70.72449 | 39122 ft | 491 kts | 42° |
| 2026-04-25 16:14 | 39.06990 | -70.64718 | 39122 ft | 491 kts | 42° |
| 2026-04-25 16:14 | 39.10714 | -70.59169 | 39124 ft | 491 kts | 42° |
| 2026-04-25 16:15 | 39.15180 | -70.52503 | 39136 ft | 491 kts | 42° |
| 2026-04-25 16:15 | 39.19641 | -70.45827 | 39120 ft | 491 kts | 42° |
| 2026-04-25 16:16 | 39.24093 | -70.39151 | 39136 ft | 490 kts | 43° |
| 2026-04-25 16:16 | 39.28532 | -70.32480 | 39129 ft | 489 kts | 43° |
| 2026-04-25 16:17 | 39.32968 | -70.25800 | 39133 ft | 489 kts | 43° |
| 2026-04-25 16:17 | 39.37369 | -70.19158 | 39150 ft | 489 kts | 42° |
| 2026-04-25 16:18 | 39.41793 | -70.12466 | 39142 ft | 488 kts | 42° |
| 2026-04-25 16:18 | 39.46195 | -70.05793 | 39135 ft | 486 kts | 42° |
| 2026-04-25 16:19 | 39.50123 | -69.98646 | 39135 ft | 499 kts | 56° |
| 2026-04-25 16:19 | 39.52873 | -69.90292 | 39132 ft | 506 kts | 62° |
| 2026-04-25 16:20 | 39.56519 | -69.77437 | 39139 ft | 510 kts | 63° |
| 2026-04-25 16:21 | 39.60177 | -69.64410 | 39131 ft | 514 kts | 63° |
| 2026-04-25 16:21 | 39.62637 | -69.55705 | 39132 ft | 513 kts | 63° |
| 2026-04-25 16:22 | 39.65095 | -69.46998 | 39140 ft | 515 kts | 63° |
| 2026-04-25 16:22 | 39.67568 | -69.38222 | 39138 ft | 519 kts | 63° |
| 2026-04-25 16:23 | 39.70033 | -69.29434 | 39135 ft | 522 kts | 63° |
| 2026-04-25 16:23 | 39.72516 | -69.20545 | 39128 ft | 524 kts | 63° |
| 2026-04-25 16:24 | 39.74993 | -69.11639 | 39132 ft | 525 kts | 63° |
| 2026-04-25 16:24 | 39.77475 | -69.02691 | 39129 ft | 526 kts | 63° |
| 2026-04-25 16:25 | 39.79952 | -68.93731 | 39127 ft | 526 kts | 63° |
| 2026-04-25 16:25 | 39.82422 | -68.84760 | 39157 ft | 525 kts | 63° |
| 2026-04-25 16:26 | 39.84863 | -68.75864 | 39122 ft | 525 kts | 63° |
| 2026-04-25 16:26 | 39.87313 | -68.66908 | 39123 ft | 525 kts | 63° |
| 2026-04-25 16:27 | 39.89758 | -68.57941 | 39120 ft | 525 kts | 63° |
| 2026-04-25 16:27 | 39.92194 | -68.48974 | 39125 ft | 525 kts | 63° |
| 2026-04-25 16:28 | 39.94608 | -68.40060 | 39120 ft | 524 kts | 63° |
| 2026-04-25 16:28 | 39.97018 | -68.31116 | 39119 ft | 521 kts | 63° |
| 2026-04-25 16:29 | 39.99384 | -68.22163 | 39112 ft | 525 kts | 66° |
| 2026-04-25 16:29 | 40.00789 | -68.12700 | 39119 ft | 535 kts | 75° |
| 2026-04-25 16:30 | 40.01797 | -68.03106 | 39115 ft | 539 kts | 76° |
| 2026-04-25 16:30 | 40.02739 | -67.93379 | 39112 ft | 540 kts | 76° |
| 2026-04-25 16:31 | 40.03683 | -67.83664 | 39116 ft | 537 kts | 76° |
| 2026-04-25 16:31 | 40.04626 | -67.74045 | 39110 ft | 535 kts | 76° |
| 2026-04-25 16:32 | 40.05573 | -67.64397 | 39106 ft | 535 kts | 76° |
| 2026-04-25 16:32 | 40.06514 | -67.54734 | 39107 ft | 536 kts | 76° |
| 2026-04-25 16:33 | 40.07443 | -67.45088 | 39103 ft | 536 kts | 76° |
| 2026-04-25 16:33 | 40.08360 | -67.35481 | 39100 ft | 536 kts | 76° |
| 2026-04-25 16:34 | 40.09277 | -67.25785 | 39092 ft | 536 kts | 76° |
| 2026-04-25 16:34 | 40.10183 | -67.16104 | 39102 ft | 535 kts | 77° |
| 2026-04-25 16:35 | 40.11069 | -67.06542 | 39093 ft | 532 kts | 77° |
| 2026-04-25 16:35 | 40.11986 | -66.96917 | 39085 ft | 530 kts | 74° |
| 2026-04-25 16:36 | 40.13406 | -66.87566 | 39093 ft | 526 kts | 70° |
| 2026-04-25 16:36 | 40.15014 | -66.78238 | 39087 ft | 526 kts | 71° |
| 2026-04-25 16:37 | 40.16553 | -66.68873 | 39079 ft | 527 kts | 71° |
| 2026-04-25 16:37 | 40.18026 | -66.59466 | 39094 ft | 527 kts | 72° |
| 2026-04-25 16:38 | 40.19463 | -66.50110 | 39081 ft | 527 kts | 72° |
| 2026-04-25 16:38 | 40.20901 | -66.40699 | 39073 ft | 528 kts | 72° |
| 2026-04-25 16:39 | 40.22335 | -66.31274 | 39071 ft | 528 kts | 72° |
| 2026-04-25 16:39 | 40.23763 | -66.21847 | 39075 ft | 528 kts | 72° |
| 2026-04-25 16:40 | 40.25185 | -66.12411 | 39071 ft | 528 kts | 72° |
| 2026-04-25 16:40 | 40.26598 | -66.02973 | 39067 ft | 528 kts | 72° |
| 2026-04-25 16:41 | 40.28004 | -65.93526 | 39063 ft | 528 kts | 72° |
| 2026-04-25 16:41 | 40.30102 | -65.79333 | 39056 ft | 529 kts | 73° |
| 2026-04-25 16:42 | 40.31483 | -65.69913 | 39050 ft | 529 kts | 73° |
| 2026-04-25 16:42 | 40.32868 | -65.60414 | 39061 ft | 530 kts | 73° |
| 2026-04-25 16:43 | 40.34244 | -65.50916 | 39067 ft | 530 kts | 73° |
| 2026-04-25 16:43 | 40.35605 | -65.41459 | 39042 ft | 527 kts | 73° |
| 2026-04-25 16:44 | 40.36957 | -65.32016 | 39037 ft | 526 kts | 73° |
| 2026-04-25 16:44 | 40.38291 | -65.22643 | 39029 ft | 526 kts | 74° |
| 2026-04-25 16:45 | 40.39627 | -65.13201 | 39029 ft | 526 kts | 74° |
| 2026-04-25 16:45 | 40.40954 | -65.03765 | 39026 ft | 526 kts | 74° |
| 2026-04-25 16:46 | 40.42276 | -64.94302 | 39039 ft | 526 kts | 74° |
| 2026-04-25 16:46 | 40.43144 | -64.88050 | 39022 ft | 524 kts | 74° |
| 2026-04-25 16:47 | 40.44872 | -64.75537 | 39020 ft | 523 kts | 74° |
| 2026-04-25 16:47 | 40.46162 | -64.66133 | 39015 ft | 523 kts | 74° |
| 2026-04-25 16:48 | 40.47442 | -64.56738 | 39015 ft | 523 kts | 75° |
| 2026-04-25 16:48 | 40.48717 | -64.47322 | 39003 ft | 523 kts | 75° |
| 2026-04-25 16:49 | 40.49983 | -64.37912 | 39009 ft | 522 kts | 75° |
| 2026-04-25 16:49 | 40.51237 | -64.28524 | 39002 ft | 520 kts | 75° |
| 2026-04-25 16:50 | 40.52475 | -64.19206 | 38996 ft | 521 kts | 75° |
| 2026-04-25 16:50 | 40.53713 | -64.09824 | 38988 ft | 521 kts | 75° |
| 2026-04-25 16:51 | 40.54946 | -64.00420 | 38990 ft | 521 kts | 75° |
| 2026-04-25 16:51 | 40.55760 | -63.94179 | 38979 ft | 522 kts | 75° |
| 2026-04-25 16:52 | 40.57381 | -63.81662 | 38980 ft | 520 kts | 75° |
| 2026-04-25 16:52 | 40.58586 | -63.72278 | 38973 ft | 520 kts | 76° |
| 2026-04-25 16:53 | 40.60382 | -63.58192 | 38960 ft | 520 kts | 76° |
| 2026-04-25 16:54 | 40.61570 | -63.48791 | 38954 ft | 520 kts | 76° |
| 2026-04-25 16:54 | 40.62742 | -63.39456 | 38960 ft | 520 kts | 76° |
| 2026-04-25 16:55 | 40.63916 | -63.30043 | 38944 ft | 520 kts | 76° |
| 2026-04-25 16:55 | 40.65081 | -63.20626 | 38938 ft | 520 kts | 76° |
| 2026-04-25 16:56 | 40.66237 | -63.11226 | 38945 ft | 520 kts | 76° |
| 2026-04-25 16:56 | 40.67387 | -63.01815 | 38933 ft | 521 kts | 77° |
| 2026-04-25 16:57 | 40.68529 | -62.92396 | 38926 ft | 521 kts | 77° |
| 2026-04-25 16:57 | 40.69657 | -62.83028 | 38936 ft | 521 kts | 77° |
| 2026-04-25 16:58 | 40.70783 | -62.73608 | 38916 ft | 520 kts | 77° |
| 2026-04-25 16:58 | 40.71902 | -62.64184 | 38912 ft | 520 kts | 77° |
| 2026-04-25 16:59 | 40.73011 | -62.54769 | 38910 ft | 520 kts | 77° |
| 2026-04-25 16:59 | 40.74116 | -62.45331 | 38903 ft | 520 kts | 77° |
| 2026-04-25 17:00 | 40.75211 | -62.35900 | 38906 ft | 520 kts | 77° |
| 2026-04-25 17:00 | 40.76294 | -62.26509 | 38902 ft | 520 kts | 78° |
| 2026-04-25 17:01 | 40.77374 | -62.17067 | 38900 ft | 519 kts | 78° |
| 2026-04-25 17:01 | 40.78446 | -62.07637 | 38897 ft | 519 kts | 78° |
| 2026-04-25 17:02 | 40.79510 | -61.98193 | 38890 ft | 519 kts | 78° |
| 2026-04-25 17:02 | 40.80559 | -61.88821 | 38889 ft | 520 kts | 78° |
| 2026-04-25 17:03 | 40.81608 | -61.79373 | 38895 ft | 519 kts | 78° |
| 2026-04-25 17:03 | 40.82647 | -61.69941 | 38886 ft | 518 kts | 78° |
| 2026-04-25 17:04 | 40.83502 | -61.62124 | 38882 ft | 518 kts | 78° |
| 2026-04-25 17:04 | 40.84526 | -61.52708 | 38875 ft | 518 kts | 78° |
| 2026-04-25 17:05 | 40.85543 | -61.43278 | 38874 ft | 518 kts | 78° |
| 2026-04-25 17:05 | 40.87048 | -61.29177 | 38868 ft | 518 kts | 79° |
| 2026-04-25 17:06 | 40.88045 | -61.19740 | 38862 ft | 518 kts | 79° |
| 2026-04-25 17:06 | 40.89034 | -61.10310 | 38862 ft | 517 kts | 79° |
| 2026-04-25 17:07 | 40.90016 | -61.00863 | 38861 ft | 518 kts | 79° |
| 2026-04-25 17:07 | 40.90990 | -60.91427 | 38853 ft | 519 kts | 79° |
| 2026-04-25 17:08 | 40.91957 | -60.81971 | 38848 ft | 519 kts | 79° |
| 2026-04-25 17:08 | 40.92912 | -60.72564 | 38848 ft | 519 kts | 79° |
| 2026-04-25 17:09 | 40.93865 | -60.63090 | 38837 ft | 520 kts | 79° |
| 2026-04-25 17:09 | 40.94811 | -60.53603 | 38837 ft | 520 kts | 79° |
| 2026-04-25 17:10 | 40.95745 | -60.44162 | 38837 ft | 520 kts | 80° |
| 2026-04-25 17:10 | 40.96678 | -60.34652 | 38828 ft | 521 kts | 80° |
| 2026-04-25 17:11 | 40.97603 | -60.25137 | 38834 ft | 521 kts | 80° |
| 2026-04-25 17:11 | 40.98518 | -60.15635 | 38827 ft | 520 kts | 80° |
| 2026-04-25 17:12 | 40.99426 | -60.06136 | 38815 ft | 520 kts | 80° |
| 2026-04-25 17:12 | 41.00349 | -59.96683 | 38819 ft | 520 kts | 78° |
| 2026-04-25 17:13 | 41.01444 | -59.88795 | 38808 ft | 519 kts | 76° |
| 2026-04-25 17:13 | 41.03138 | -59.77905 | 38821 ft | 519 kts | 76° |
| 2026-04-25 17:14 | 41.04538 | -59.68516 | 38805 ft | 519 kts | 76° |
| 2026-04-25 17:14 | 41.05879 | -59.59152 | 38797 ft | 520 kts | 77° |
| 2026-04-25 17:15 | 41.07206 | -59.49725 | 38798 ft | 521 kts | 77° |
| 2026-04-25 17:15 | 41.08526 | -59.40285 | 38795 ft | 521 kts | 77° |
| 2026-04-25 17:16 | 41.09841 | -59.30843 | 38787 ft | 521 kts | 77° |
| 2026-04-25 17:16 | 41.11151 | -59.21395 | 38788 ft | 521 kts | 77° |
| 2026-04-25 17:17 | 41.12454 | -59.11931 | 38777 ft | 522 kts | 77° |
| 2026-04-25 17:17 | 41.13750 | -59.02458 | 38777 ft | 522 kts | 77° |
| 2026-04-25 17:18 | 41.15039 | -58.92977 | 38770 ft | 522 kts | 77° |
| 2026-04-25 17:18 | 41.16321 | -58.83483 | 38771 ft | 523 kts | 77° |
| 2026-04-25 17:19 | 41.17588 | -58.74037 | 38762 ft | 523 kts | 77° |
| 2026-04-25 17:19 | 41.18858 | -58.64517 | 38760 ft | 523 kts | 77° |
| 2026-04-25 17:20 | 41.20119 | -58.54991 | 38754 ft | 524 kts | 77° |
| 2026-04-25 17:20 | 41.21374 | -58.45451 | 38761 ft | 524 kts | 78° |
| 2026-04-25 17:21 | 41.22614 | -58.35965 | 38748 ft | 524 kts | 78° |
| 2026-04-25 17:21 | 41.23856 | -58.26398 | 38746 ft | 525 kts | 78° |
| 2026-04-25 17:22 | 41.24882 | -58.18449 | 38748 ft | 525 kts | 78° |
| 2026-04-25 17:22 | 41.26316 | -58.07255 | 38734 ft | 525 kts | 78° |
| 2026-04-25 17:23 | 41.27528 | -57.97729 | 38741 ft | 525 kts | 78° |
| 2026-04-25 17:23 | 41.28739 | -57.88139 | 38732 ft | 526 kts | 78° |
| 2026-04-25 17:24 | 41.29942 | -57.78551 | 38729 ft | 526 kts | 78° |
| 2026-04-25 17:24 | 41.31137 | -57.68955 | 38724 ft | 525 kts | 78° |
| 2026-04-25 17:25 | 41.32324 | -57.59354 | 38724 ft | 526 kts | 78° |
| 2026-04-25 17:25 | 41.33500 | -57.49771 | 38716 ft | 526 kts | 78° |
| 2026-04-25 17:26 | 41.34673 | -57.40157 | 38717 ft | 525 kts | 79° |
| 2026-04-25 17:26 | 41.35830 | -57.30609 | 38712 ft | 526 kts | 79° |
| 2026-04-25 17:27 | 41.36988 | -57.20976 | 38705 ft | 527 kts | 79° |
| 2026-04-25 17:27 | 41.37758 | -57.14524 | 38706 ft | 527 kts | 79° |
| 2026-04-25 17:28 | 41.39280 | -57.01683 | 38697 ft | 527 kts | 79° |
| 2026-04-25 17:28 | 41.40408 | -56.92089 | 38691 ft | 527 kts | 79° |
| 2026-04-25 17:29 | 41.41534 | -56.82437 | 38684 ft | 527 kts | 79° |
| 2026-04-25 17:29 | 41.42654 | -56.72770 | 38682 ft | 528 kts | 79° |
| 2026-04-25 17:30 | 41.43761 | -56.63138 | 38675 ft | 527 kts | 79° |
| 2026-04-25 17:30 | 41.44864 | -56.53474 | 38683 ft | 527 kts | 79° |
| 2026-04-25 17:31 | 41.45958 | -56.43802 | 38674 ft | 528 kts | 80° |
| 2026-04-25 17:31 | 41.47045 | -56.34124 | 38678 ft | 528 kts | 80° |
| 2026-04-25 17:32 | 41.48125 | -56.24434 | 38672 ft | 529 kts | 80° |
| 2026-04-25 17:32 | 41.49200 | -56.14707 | 38658 ft | 529 kts | 80° |
| 2026-04-25 17:33 | 41.50267 | -56.04986 | 38651 ft | 529 kts | 80° |
| 2026-04-25 17:33 | 41.51317 | -55.95331 | 38647 ft | 529 kts | 80° |
| 2026-04-25 17:34 | 41.52367 | -55.85604 | 38647 ft | 529 kts | 81° |
| 2026-04-25 17:34 | 41.53411 | -55.75848 | 38656 ft | 530 kts | 81° |
| 2026-04-25 17:35 | 41.54439 | -55.66167 | 38646 ft | 529 kts | 81° |
| 2026-04-25 17:35 | 41.55466 | -55.56411 | 38638 ft | 530 kts | 81° |
| 2026-04-25 17:36 | 41.56484 | -55.46657 | 38640 ft | 529 kts | 81° |
| 2026-04-25 17:36 | 41.57495 | -55.36895 | 38634 ft | 530 kts | 81° |
| 2026-04-25 17:37 | 41.58498 | -55.27133 | 38633 ft | 531 kts | 81° |
| 2026-04-25 17:37 | 41.59493 | -55.17351 | 38635 ft | 531 kts | 81° |
| 2026-04-25 17:38 | 41.60148 | -55.10866 | 38628 ft | 531 kts | 81° |
| 2026-04-25 17:38 | 41.61454 | -54.97831 | 38621 ft | 531 kts | 81° |
| 2026-04-25 17:39 | 41.62425 | -54.88037 | 38623 ft | 532 kts | 82° |
| 2026-04-25 17:39 | 41.63390 | -54.78216 | 38622 ft | 532 kts | 82° |
| 2026-04-25 17:40 | 41.64345 | -54.68410 | 38618 ft | 532 kts | 82° |
| 2026-04-25 17:40 | 41.65287 | -54.58657 | 38615 ft | 532 kts | 82° |
| 2026-04-25 17:41 | 41.66225 | -54.48848 | 38612 ft | 532 kts | 82° |
| 2026-04-25 17:41 | 41.67156 | -54.39024 | 38604 ft | 532 kts | 82° |
| 2026-04-25 17:42 | 41.68080 | -54.29183 | 38604 ft | 532 kts | 82° |
| 2026-04-25 17:42 | 41.68989 | -54.19406 | 38605 ft | 532 kts | 82° |
| 2026-04-25 17:43 | 41.69894 | -54.09584 | 38600 ft | 532 kts | 82° |
| 2026-04-25 17:43 | 41.70792 | -53.99739 | 38601 ft | 532 kts | 82° |
| 2026-04-25 17:44 | 41.71682 | -53.89894 | 38600 ft | 533 kts | 83° |
| 2026-04-25 17:44 | 41.72565 | -53.80030 | 38598 ft | 533 kts | 83° |
| 2026-04-25 17:45 | 41.73145 | -53.73497 | 38594 ft | 533 kts | 83° |
| 2026-04-25 17:45 | 41.74300 | -53.60355 | 38595 ft | 533 kts | 83° |
| 2026-04-25 17:46 | 41.75158 | -53.50477 | 38593 ft | 534 kts | 83° |
| 2026-04-25 17:46 | 41.76008 | -53.40591 | 38599 ft | 534 kts | 83° |
| 2026-04-25 17:47 | 41.76846 | -53.30737 | 38590 ft | 535 kts | 83° |
| 2026-04-25 17:47 | 41.77680 | -53.20836 | 38589 ft | 535 kts | 83° |
| 2026-04-25 17:48 | 41.78916 | -53.05971 | 38586 ft | 535 kts | 83° |
| 2026-04-25 17:49 | 41.79729 | -52.96059 | 38584 ft | 535 kts | 83° |
| 2026-04-25 17:49 | 41.80533 | -52.86147 | 38583 ft | 535 kts | 83° |
| 2026-04-25 17:50 | 41.81329 | -52.76231 | 38579 ft | 535 kts | 84° |
| 2026-04-25 17:50 | 41.81983 | -52.67994 | 38582 ft | 535 kts | 84° |
| 2026-04-25 17:51 | 41.82891 | -52.56441 | 38581 ft | 535 kts | 84° |
| 2026-04-25 17:51 | 41.83662 | -52.46518 | 38579 ft | 534 kts | 84° |
| 2026-04-25 17:52 | 41.84296 | -52.38267 | 38573 ft | 535 kts | 84° |
| 2026-04-25 17:52 | 41.85051 | -52.28326 | 38576 ft | 535 kts | 84° |
| 2026-04-25 17:53 | 41.85798 | -52.18390 | 38575 ft | 535 kts | 84° |
| 2026-04-25 17:53 | 41.86536 | -52.08453 | 38576 ft | 535 kts | 84° |
| 2026-04-25 17:54 | 41.87266 | -51.98503 | 38568 ft | 535 kts | 84° |
| 2026-04-25 17:54 | 41.87984 | -51.88603 | 38576 ft | 536 kts | 85° |
| 2026-04-25 17:55 | 41.88697 | -51.78639 | 38570 ft | 536 kts | 85° |
| 2026-04-25 17:55 | 41.89402 | -51.68677 | 38572 ft | 536 kts | 85° |
| 2026-04-25 17:56 | 41.90099 | -51.58701 | 38570 ft | 536 kts | 85° |
| 2026-04-25 17:56 | 41.90783 | -51.48793 | 38565 ft | 536 kts | 85° |
| 2026-04-25 17:57 | 41.91464 | -51.38789 | 38566 ft | 538 kts | 85° |
| 2026-04-25 17:57 | 41.92138 | -51.28765 | 38571 ft | 538 kts | 85° |
| 2026-04-25 17:58 | 41.92803 | -51.18743 | 38570 ft | 538 kts | 85° |
| 2026-04-25 17:58 | 41.93459 | -51.08720 | 38573 ft | 539 kts | 85° |
| 2026-04-25 17:59 | 41.94104 | -50.98732 | 38567 ft | 540 kts | 86° |
| 2026-04-25 17:59 | 41.94746 | -50.88660 | 38566 ft | 540 kts | 86° |
| 2026-04-25 18:00 | 41.95378 | -50.78597 | 38569 ft | 540 kts | 86° |
| 2026-04-25 18:00 | 41.95997 | -50.68590 | 38569 ft | 540 kts | 86° |
| 2026-04-25 18:01 | 41.96612 | -50.58517 | 38569 ft | 540 kts | 86° |
| 2026-04-25 18:01 | 41.97218 | -50.48454 | 38566 ft | 540 kts | 86° |
| 2026-04-25 18:02 | 41.97815 | -50.38378 | 38566 ft | 541 kts | 86° |
| 2026-04-25 18:02 | 41.98405 | -50.28274 | 38567 ft | 541 kts | 86° |
| 2026-04-25 18:03 | 41.98981 | -50.18260 | 38567 ft | 541 kts | 87° |
| 2026-04-25 18:03 | 41.99553 | -50.08164 | 38568 ft | 541 kts | 87° |
| 2026-04-25 18:04 | 42.00348 | -49.98099 | 38568 ft | 543 kts | 81° |
| 2026-04-25 18:04 | 42.01703 | -49.88100 | 38567 ft | 544 kts | 80° |
| 2026-04-25 18:05 | 42.03150 | -49.78105 | 38564 ft | 544 kts | 80° |
| 2026-04-25 18:05 | 42.04589 | -49.68185 | 38568 ft | 543 kts | 80° |
| 2026-04-25 18:06 | 42.06018 | -49.58191 | 38563 ft | 543 kts | 80° |
| 2026-04-25 18:06 | 42.07429 | -49.48205 | 38561 ft | 543 kts | 81° |
| 2026-04-25 18:07 | 42.08833 | -49.38199 | 38571 ft | 544 kts | 81° |
| 2026-04-25 18:07 | 42.10231 | -49.28160 | 38564 ft | 546 kts | 81° |
| 2026-04-25 18:08 | 42.11615 | -49.18167 | 38566 ft | 546 kts | 81° |
| 2026-04-25 18:08 | 42.12998 | -49.08117 | 38568 ft | 545 kts | 81° |
| 2026-04-25 18:09 | 42.14371 | -48.98061 | 38564 ft | 545 kts | 81° |
| 2026-04-25 18:09 | 42.15737 | -48.87996 | 38572 ft | 545 kts | 81° |
| 2026-04-25 18:10 | 42.17095 | -48.77916 | 38571 ft | 546 kts | 82° |
| 2026-04-25 18:10 | 42.18437 | -48.67885 | 38578 ft | 547 kts | 82° |
| 2026-04-25 18:11 | 42.19779 | -48.57788 | 38576 ft | 547 kts | 82° |
| 2026-04-25 18:11 | 42.21113 | -48.47678 | 38581 ft | 547 kts | 82° |
| 2026-04-25 18:12 | 42.22431 | -48.37623 | 38571 ft | 547 kts | 82° |
| 2026-04-25 18:12 | 42.23750 | -48.27483 | 38574 ft | 547 kts | 82° |
| 2026-04-25 18:13 | 42.25058 | -48.17360 | 38575 ft | 548 kts | 83° |
| 2026-04-25 18:13 | 42.26351 | -48.07266 | 38576 ft | 550 kts | 83° |
| 2026-04-25 18:14 | 42.28294 | -47.91977 | 38573 ft | 550 kts | 83° |
| 2026-04-25 18:14 | 42.29571 | -47.81846 | 38572 ft | 544 kts | 83° |
| 2026-04-25 18:15 | 42.30831 | -47.71762 | 38580 ft | 544 kts | 84° |
| 2026-04-25 18:15 | 42.32073 | -47.61740 | 38574 ft | 544 kts | 84° |
| 2026-04-25 18:16 | 42.33315 | -47.51640 | 38579 ft | 544 kts | 84° |
| 2026-04-25 18:17 | 42.35164 | -47.36484 | 38577 ft | 544 kts | 84° |
| 2026-04-25 18:17 | 42.36384 | -47.26383 | 38581 ft | 544 kts | 84° |
| 2026-04-25 18:18 | 42.37591 | -47.16318 | 38582 ft | 544 kts | 84° |
| 2026-04-25 18:18 | 42.38796 | -47.06184 | 38580 ft | 544 kts | 84° |
| 2026-04-25 18:19 | 42.39991 | -46.96061 | 38584 ft | 545 kts | 84° |
| 2026-04-25 18:19 | 42.41179 | -46.85904 | 38587 ft | 548 kts | 85° |
| 2026-04-25 18:20 | 42.42357 | -46.75763 | 38592 ft | 548 kts | 85° |
| 2026-04-25 18:20 | 42.43534 | -46.65555 | 38592 ft | 549 kts | 85° |
| 2026-04-25 18:21 | 42.44705 | -46.55304 | 38589 ft | 553 kts | 85° |
| 2026-04-25 18:21 | 42.45874 | -46.44983 | 38591 ft | 555 kts | 85° |
| 2026-04-25 18:22 | 42.47037 | -46.34645 | 38595 ft | 556 kts | 85° |
| 2026-04-25 18:22 | 42.48188 | -46.24323 | 38592 ft | 558 kts | 85° |
| 2026-04-25 18:23 | 42.49340 | -46.13917 | 38595 ft | 558 kts | 85° |
| 2026-04-25 18:23 | 42.50482 | -46.03501 | 38600 ft | 558 kts | 85° |
| 2026-04-25 18:24 | 42.51613 | -45.93091 | 38600 ft | 558 kts | 85° |
| 2026-04-25 18:24 | 42.52683 | -45.82665 | 38589 ft | 555 kts | 91° |
| 2026-04-25 18:25 | 42.52581 | -45.72346 | 38605 ft | 553 kts | 92° |
| 2026-04-25 18:25 | 42.53186 | -45.61901 | 38605 ft | 557 kts | 87° |
| 2026-04-25 18:26 | 42.54240 | -45.51501 | 38612 ft | 557 kts | 85° |
| 2026-04-25 18:26 | 42.54476 | -45.46290 | 38636 ft | 547 kts | 99° |
| 2026-04-25 18:26 | 42.54385 | -45.41125 | 38612 ft | 550 kts | 94° |
| 2026-04-25 18:27 | 42.54820 | -45.30718 | 38615 ft | 555 kts | 88° |
| 2026-04-25 18:27 | 42.55772 | -45.20315 | 38612 ft | 557 kts | 86° |
| 2026-04-25 18:28 | 42.56868 | -45.09948 | 38619 ft | 557 kts | 85° |
| 2026-04-25 18:28 | 42.57954 | -44.99522 | 38614 ft | 557 kts | 86° |
| 2026-04-25 18:29 | 42.59517 | -44.83871 | 38625 ft | 557 kts | 86° |
| 2026-04-25 18:30 | 42.61539 | -44.63090 | 38594 ft | 556 kts | 86° |
| 2026-04-25 18:30 | 42.62538 | -44.52672 | 38631 ft | 557 kts | 86° |
| 2026-04-25 18:31 | 42.63530 | -44.42245 | 38628 ft | 557 kts | 86° |
| 2026-04-25 18:31 | 42.64513 | -44.31814 | 38633 ft | 555 kts | 86° |
| 2026-04-25 18:32 | 42.65484 | -44.21409 | 38634 ft | 555 kts | 87° |
| 2026-04-25 18:32 | 42.66437 | -44.11085 | 38633 ft | 555 kts | 87° |
| 2026-04-25 18:33 | 42.67389 | -44.00661 | 38611 ft | 554 kts | 87° |
| 2026-04-25 18:33 | 42.68331 | -43.90253 | 38635 ft | 553 kts | 87° |
| 2026-04-25 18:34 | 42.69256 | -43.79932 | 38642 ft | 553 kts | 87° |
| 2026-04-25 18:34 | 42.70175 | -43.69546 | 38641 ft | 553 kts | 87° |
| 2026-04-25 18:35 | 42.71085 | -43.59171 | 38642 ft | 553 kts | 88° |
| 2026-04-25 18:35 | 42.71985 | -43.48798 | 38638 ft | 552 kts | 88° |
| 2026-04-25 18:36 | 42.72876 | -43.38419 | 38619 ft | 552 kts | 88° |
| 2026-04-25 18:36 | 42.73750 | -43.28118 | 38648 ft | 552 kts | 88° |
| 2026-04-25 18:37 | 42.74624 | -43.17701 | 38643 ft | 552 kts | 88° |
| 2026-04-25 18:37 | 42.75487 | -43.07311 | 38647 ft | 552 kts | 88° |
| 2026-04-25 18:38 | 42.76339 | -42.96936 | 38644 ft | 552 kts | 88° |
| 2026-04-25 18:38 | 42.77182 | -42.86554 | 38652 ft | 552 kts | 88° |
| 2026-04-25 18:39 | 42.78011 | -42.76227 | 38615 ft | 552 kts | 88° |
| 2026-04-25 18:39 | 42.78836 | -42.65818 | 38646 ft | 552 kts | 88° |
| 2026-04-25 18:40 | 42.79515 | -42.57174 | 38653 ft | 552 kts | 88° |
| 2026-04-25 18:40 | 42.80453 | -42.45082 | 38654 ft | 551 kts | 88° |
| 2026-04-25 18:41 | 42.81121 | -42.36372 | 38658 ft | 551 kts | 88° |
| 2026-04-25 18:41 | 42.81909 | -42.25969 | 38655 ft | 550 kts | 89° |
| 2026-04-25 18:42 | 42.82555 | -42.17364 | 38656 ft | 549 kts | 89° |
| 2026-04-25 18:42 | 42.83447 | -42.05315 | 38663 ft | 548 kts | 89° |
| 2026-04-25 18:43 | 42.84201 | -41.94993 | 38662 ft | 547 kts | 89° |
| 2026-04-25 18:43 | 42.84944 | -41.84679 | 38659 ft | 547 kts | 89° |
| 2026-04-25 18:44 | 42.85679 | -41.74360 | 38661 ft | 546 kts | 89° |
| 2026-04-25 18:44 | 42.86398 | -41.64125 | 38661 ft | 546 kts | 89° |
| 2026-04-25 18:45 | 42.87114 | -41.53809 | 38661 ft | 546 kts | 89° |
| 2026-04-25 18:45 | 42.87820 | -41.43505 | 38658 ft | 546 kts | 89° |
| 2026-04-25 18:46 | 42.88516 | -41.33200 | 38667 ft | 545 kts | 89° |
| 2026-04-25 18:46 | 42.89203 | -41.22889 | 38666 ft | 545 kts | 89° |
| 2026-04-25 18:47 | 42.89880 | -41.12586 | 38667 ft | 545 kts | 89° |
| 2026-04-25 18:47 | 42.90548 | -41.02287 | 38665 ft | 545 kts | 89° |
| 2026-04-25 18:48 | 42.91201 | -40.92077 | 38670 ft | 543 kts | 89° |
| 2026-04-25 18:48 | 42.91849 | -40.81808 | 38668 ft | 542 kts | 89° |
| 2026-04-25 18:49 | 42.92485 | -40.71564 | 38676 ft | 541 kts | 89° |
| 2026-04-25 18:49 | 42.93111 | -40.61342 | 38669 ft | 540 kts | 89° |
| 2026-04-25 18:50 | 42.93727 | -40.51136 | 38677 ft | 538 kts | 90° |
| 2026-04-25 18:50 | 42.94331 | -40.40960 | 38678 ft | 538 kts | 90° |
| 2026-04-25 18:51 | 42.94827 | -40.32501 | 38678 ft | 538 kts | 90° |
| 2026-04-25 18:51 | 42.95508 | -40.20683 | 38663 ft | 537 kts | 90° |
| 2026-04-25 18:52 | 42.96085 | -40.10535 | 38682 ft | 533 kts | 90° |
| 2026-04-25 18:52 | 42.96648 | -40.00457 | 38678 ft | 532 kts | 90° |
| 2026-04-25 18:53 | 42.97143 | -39.90441 | 38674 ft | 531 kts | 91° |
| 2026-04-25 18:53 | 42.97546 | -39.80360 | 38681 ft | 531 kts | 91° |
| 2026-04-25 18:54 | 42.98141 | -39.65270 | 38678 ft | 530 kts | 91° |
| 2026-04-25 18:55 | 42.98543 | -39.55207 | 38677 ft | 529 kts | 91° |
| 2026-04-25 18:55 | 42.98936 | -39.45231 | 38682 ft | 528 kts | 91° |
| 2026-04-25 18:56 | 42.99322 | -39.35201 | 38672 ft | 528 kts | 91° |
| 2026-04-25 18:56 | 42.99698 | -39.25180 | 38683 ft | 527 kts | 91° |
| 2026-04-25 18:57 | 43.00066 | -39.15161 | 38679 ft | 527 kts | 91° |
| 2026-04-25 18:57 | 43.00424 | -39.05153 | 38691 ft | 527 kts | 91° |
| 2026-04-25 18:58 | 43.00770 | -38.95216 | 38679 ft | 527 kts | 91° |
| 2026-04-25 18:58 | 43.01278 | -38.80211 | 38699 ft | 526 kts | 91° |
| 2026-04-25 18:59 | 43.01922 | -38.60273 | 38709 ft | 526 kts | 91° |
| 2026-04-25 19:00 | 43.02384 | -38.45253 | 38713 ft | 526 kts | 92° |
| 2026-04-25 19:01 | 43.02823 | -38.30346 | 38719 ft | 525 kts | 91° |
| 2026-04-25 19:01 | 43.03106 | -38.20373 | 38729 ft | 525 kts | 92° |
| 2026-04-25 19:02 | 43.03515 | -38.05390 | 38740 ft | 525 kts | 92° |
| 2026-04-25 19:03 | 43.03818 | -37.93781 | 38736 ft | 525 kts | 92° |
| 2026-04-25 19:03 | 43.04151 | -37.80455 | 38748 ft | 525 kts | 92° |
| 2026-04-25 19:04 | 43.04508 | -37.65479 | 38756 ft | 525 kts | 92° |
| 2026-04-25 19:05 | 43.04951 | -37.45592 | 38768 ft | 524 kts | 92° |
| 2026-04-25 19:06 | 43.05160 | -37.35625 | 38781 ft | 524 kts | 92° |
| 2026-04-25 19:06 | 43.05457 | -37.20668 | 38784 ft | 524 kts | 92° |
| 2026-04-25 19:07 | 43.05736 | -37.05730 | 38798 ft | 522 kts | 92° |
| 2026-04-25 19:08 | 43.05993 | -36.90866 | 38805 ft | 521 kts | 93° |
| 2026-04-25 19:09 | 43.06278 | -36.72791 | 38815 ft | 521 kts | 93° |
| 2026-04-25 19:10 | 43.06515 | -36.56278 | 38826 ft | 520 kts | 93° |
| 2026-04-25 19:10 | 43.06646 | -36.46372 | 38824 ft | 520 kts | 93° |
| 2026-04-25 19:11 | 43.06767 | -36.36530 | 38845 ft | 520 kts | 93° |
| 2026-04-25 19:11 | 43.06881 | -36.26642 | 38840 ft | 520 kts | 93° |
| 2026-04-25 19:12 | 43.06986 | -36.16762 | 38850 ft | 519 kts | 93° |
| 2026-04-25 19:12 | 43.07082 | -36.06929 | 38861 ft | 519 kts | 93° |
| 2026-04-25 19:13 | 43.07170 | -35.97011 | 38864 ft | 519 kts | 93° |
| 2026-04-25 19:13 | 43.07249 | -35.87124 | 38868 ft | 519 kts | 93° |
| 2026-04-25 19:14 | 43.07320 | -35.77227 | 38881 ft | 519 kts | 93° |
| 2026-04-25 19:14 | 43.07382 | -35.67333 | 38886 ft | 519 kts | 94° |
| 2026-04-25 19:15 | 43.07436 | -35.57491 | 38886 ft | 519 kts | 94° |
| 2026-04-25 19:15 | 43.07481 | -35.47607 | 38889 ft | 519 kts | 94° |
| 2026-04-25 19:16 | 43.07518 | -35.37714 | 38897 ft | 520 kts | 94° |
| 2026-04-25 19:16 | 43.07546 | -35.27815 | 38903 ft | 520 kts | 94° |
| 2026-04-25 19:17 | 43.07566 | -35.17909 | 38903 ft | 520 kts | 94° |
| 2026-04-25 19:17 | 43.07578 | -35.08072 | 38914 ft | 520 kts | 94° |
| 2026-04-25 19:18 | 43.07580 | -34.98207 | 38913 ft | 520 kts | 94° |
| 2026-04-25 19:18 | 43.07574 | -34.88266 | 38929 ft | 523 kts | 94° |
| 2026-04-25 19:19 | 43.07560 | -34.78277 | 38932 ft | 523 kts | 94° |
| 2026-04-25 19:19 | 43.07537 | -34.68331 | 38934 ft | 523 kts | 94° |
| 2026-04-25 19:20 | 43.07506 | -34.58378 | 38944 ft | 524 kts | 94° |
| 2026-04-25 19:20 | 43.07465 | -34.48427 | 38944 ft | 525 kts | 94° |
| 2026-04-25 19:21 | 43.07416 | -34.38426 | 38970 ft | 526 kts | 94° |
| 2026-04-25 19:21 | 43.07327 | -34.23412 | 38967 ft | 525 kts | 94° |
| 2026-04-25 19:22 | 43.07256 | -34.13467 | 38967 ft | 525 kts | 94° |
| 2026-04-25 19:23 | 43.07133 | -33.98457 | 38955 ft | 526 kts | 94° |
| 2026-04-25 19:23 | 43.06992 | -33.83504 | 38979 ft | 526 kts | 94° |
| 2026-04-25 19:24 | 43.06886 | -33.73502 | 38981 ft | 525 kts | 94° |
| 2026-04-25 19:25 | 43.06648 | -33.53505 | 38993 ft | 526 kts | 94° |
| 2026-04-25 19:25 | 43.06516 | -33.43488 | 38987 ft | 526 kts | 94° |
| 2026-04-25 19:26 | 43.06376 | -33.33476 | 38993 ft | 526 kts | 94° |
| 2026-04-25 19:26 | 43.06252 | -33.25137 | 39000 ft | 526 kts | 94° |
| 2026-04-25 19:27 | 43.06122 | -33.16817 | 39005 ft | 527 kts | 94° |
| 2026-04-25 19:27 | 43.05929 | -33.05109 | 39015 ft | 527 kts | 94° |
| 2026-04-25 19:28 | 43.05757 | -32.95164 | 39015 ft | 527 kts | 94° |
| 2026-04-25 19:28 | 43.05574 | -32.85138 | 39027 ft | 527 kts | 94° |
| 2026-04-25 19:29 | 43.05381 | -32.75101 | 39013 ft | 527 kts | 94° |
| 2026-04-25 19:29 | 43.05180 | -32.65092 | 39030 ft | 527 kts | 94° |
| 2026-04-25 19:30 | 43.04971 | -32.55061 | 39038 ft | 527 kts | 94° |
| 2026-04-25 19:30 | 43.04753 | -32.45043 | 39038 ft | 527 kts | 94° |
| 2026-04-25 19:31 | 43.04526 | -32.34996 | 39051 ft | 527 kts | 94° |
| 2026-04-25 19:31 | 43.04292 | -32.25038 | 39046 ft | 528 kts | 94° |
| 2026-04-25 19:32 | 43.04047 | -32.15001 | 39051 ft | 528 kts | 94° |
| 2026-04-25 19:32 | 43.03837 | -32.06670 | 39067 ft | 528 kts | 94° |
| 2026-04-25 19:33 | 43.03533 | -31.94989 | 39060 ft | 528 kts | 94° |
| 2026-04-25 19:33 | 43.03262 | -31.84943 | 39074 ft | 527 kts | 94° |
| 2026-04-25 19:34 | 43.02982 | -31.74926 | 39067 ft | 527 kts | 94° |
| 2026-04-25 19:34 | 43.02694 | -31.64893 | 39078 ft | 527 kts | 94° |
| 2026-04-25 19:35 | 43.02397 | -31.54873 | 39079 ft | 527 kts | 94° |
| 2026-04-25 19:35 | 43.02093 | -31.44918 | 39083 ft | 527 kts | 93° |
| 2026-04-25 19:36 | 43.01778 | -31.34886 | 39091 ft | 527 kts | 93° |
| 2026-04-25 19:36 | 43.01455 | -31.24855 | 39096 ft | 527 kts | 93° |
| 2026-04-25 19:37 | 43.01126 | -31.14919 | 39101 ft | 527 kts | 93° |
| 2026-04-25 19:37 | 43.00785 | -31.04910 | 39102 ft | 526 kts | 93° |
| 2026-04-25 19:38 | 43.00437 | -30.94931 | 39105 ft | 524 kts | 93° |
| 2026-04-25 19:38 | 43.00081 | -30.84985 | 39103 ft | 523 kts | 93° |
| 2026-04-25 19:39 | 42.99718 | -30.75058 | 39106 ft | 523 kts | 93° |
| 2026-04-25 19:39 | 42.99349 | -30.65205 | 39110 ft | 522 kts | 93° |
| 2026-04-25 19:40 | 42.98969 | -30.55284 | 39117 ft | 519 kts | 93° |
| 2026-04-25 19:40 | 42.98583 | -30.45432 | 39119 ft | 518 kts | 93° |
| 2026-04-25 19:41 | 42.98191 | -30.35667 | 39118 ft | 518 kts | 94° |
| 2026-04-25 19:41 | 42.97855 | -30.27431 | 39112 ft | 518 kts | 93° |
| 2026-04-25 19:42 | 42.97378 | -30.16007 | 39124 ft | 516 kts | 94° |
| 2026-04-25 19:42 | 42.96960 | -30.06198 | 39125 ft | 516 kts | 94° |
| 2026-04-25 19:43 | 42.96857 | -29.96463 | 39125 ft | 516 kts | 88° |
| 2026-04-25 19:43 | 42.97212 | -29.86672 | 39125 ft | 516 kts | 86° |
| 2026-04-25 19:44 | 42.97636 | -29.76873 | 39129 ft | 515 kts | 86° |
| 2026-04-25 19:44 | 42.98053 | -29.67114 | 39129 ft | 513 kts | 86° |
| 2026-04-25 19:45 | 42.98451 | -29.57396 | 39132 ft | 512 kts | 86° |
| 2026-04-25 19:45 | 42.98835 | -29.47679 | 39132 ft | 511 kts | 86° |
| 2026-04-25 19:46 | 42.99207 | -29.38054 | 39135 ft | 510 kts | 87° |
| 2026-04-25 19:46 | 42.99572 | -29.28380 | 39136 ft | 509 kts | 87° |
| 2026-04-25 19:47 | 42.99931 | -29.18684 | 39137 ft | 508 kts | 87° |
| 2026-04-25 19:47 | 43.00277 | -29.09091 | 39133 ft | 508 kts | 87° |
| 2026-04-25 19:48 | 43.00618 | -28.99438 | 39144 ft | 508 kts | 87° |
| 2026-04-25 19:48 | 43.00950 | -28.89811 | 39136 ft | 507 kts | 87° |
| 2026-04-25 19:49 | 43.01166 | -28.83411 | 39144 ft | 507 kts | 87° |
| 2026-04-25 19:49 | 43.01588 | -28.70577 | 39144 ft | 507 kts | 87° |
| 2026-04-25 19:50 | 43.02046 | -28.56125 | 39152 ft | 506 kts | 88° |
| 2026-04-25 19:51 | 43.02341 | -28.46514 | 39155 ft | 506 kts | 88° |
| 2026-04-25 19:51 | 43.02626 | -28.36967 | 39155 ft | 506 kts | 88° |
| 2026-04-25 19:52 | 43.02904 | -28.27361 | 39153 ft | 506 kts | 88° |
| 2026-04-25 19:52 | 43.03175 | -28.17746 | 39158 ft | 506 kts | 88° |
| 2026-04-25 19:53 | 43.03437 | -28.08135 | 39157 ft | 506 kts | 88° |